This is the latest recevied weather packets stored in our database for station/object K4ZZR. If no packets are shown the sender has not sent any weather packets the latest 10 day(s).
| Time | Temp. | Humidity | Pressure | Rain* | Wind** | Luminosity | Snow |
|---|---|---|---|---|---|---|---|
| 1778009540 | 26.11° C | 82% | 1014.8 hPa | 0 mm | - | 596 W/m² | - |
| 1778009239 | 26.11° C | 81% | 1014.8 hPa | 0 mm | - | 905 W/m² | - |
| 1778008936 | 26.11° C | 81% | 1015 hPa | 0 mm | - | 841 W/m² | - |
| 1778008634 | 26.11° C | 82% | 1014.8 hPa | 0 mm | - | 891 W/m² | - |
| 1778008332 | 26.11° C | 81% | 1015.3 hPa | 0 mm | - | 327 W/m² | - |
| 1778008028 | 27.22° C | 80% | 1015 hPa | 0 mm | - | 919 W/m² | - |
| 1778007722 | 26.11° C | 82% | 1015.1 hPa | 0 mm | - | 915 W/m² | - |
| 1778007419 | 27.22° C | 80% | 1015.2 hPa | 0 mm | - | 905 W/m² | - |
| 1778007115 | 26.11° C | 82% | 1015.3 hPa | 0 mm | - | 971 W/m² | - |
| 1778006812 | 26.11° C | 80% | 1015.2 hPa | 0 mm | - | 887 W/m² | - |
| 1778006509 | 26.11° C | 81% | 1015.5 hPa | 0 mm | - | 492 W/m² | - |
| 1778006206 | 26.67° C | 80% | 1015.4 hPa | 0 mm | - | 866 W/m² | - |
| 1778005903 | 26.11° C | 81% | 1015.4 hPa | 0 mm | - | 909 W/m² | - |
| 1778005599 | 26.67° C | 79% | 1015.3 hPa | 0 mm | - | 879 W/m² | - |
| 1778005297 | 26.67° C | 80% | 1015.3 hPa | 0 mm | - | 942 W/m² | - |
| 1778004993 | 26.11° C | 81% | 1015.5 hPa | 0 mm | - | 830 W/m² | - |
| 1778004691 | 26.11° C | 79% | 1015.5 hPa | 0 mm | - | 864 W/m² | - |
| 1778004386 | 26.67° C | 79% | 1015.4 hPa | 0 mm | - | 912 W/m² | - |
| 1778004084 | 26.11° C | 80% | 1015.7 hPa | 0 mm | - | 980 W/m² | - |
| 1778003780 | 26.67° C | 78% | 1015.8 hPa | 0 mm | - | 1015 W/m² | - |
| 1778003476 | 26.11° C | 80% | 1015.7 hPa | 0 mm | - | 996 W/m² | - |
| 1778003173 | 26.11° C | 81% | 1015.8 hPa | 0 mm | - | 983 W/m² | - |
| 1778002869 | 25° C | 82% | 1015.8 hPa | 0 mm | - | 264 W/m² | - |
| 1778002566 | 25.56° C | 83% | 1016 hPa | 0 mm | - | 315 W/m² | - |
| 1778002263 | 25.56° C | 83% | 1016.1 hPa | 0 mm | - | 340 W/m² | - |
* Rain latest hour (hover to see other rain measurements)
** Current wind speed in m/s (hover to see current wind gust speed)